Time;durP1;ratioP1;P1;durP2;ratioP2;P2;SDS_P1;SDS_P2;PMS_P1;PMS_P2;Temp;Humidity;BMP_temperature;BMP_pressure;BME280_temperature;BME280_humidity;BME280_pressure;Samples;Min_cycle;Max_cycle;Signal;HPM_P1;HPM_P2
2022/10/29 00:01:36;;;;;;;22.83;7.07;;;;;;;14.93;100.00;101884.47;5001454;28;20038;-79
2022/10/29 00:04:01;;;;;;;15.70;6.60;;;;;;;14.94;100.00;101882.69;5006814;28;20035;-79
2022/10/29 00:06:27;;;;;;;19.98;6.35;;;;;;;14.94;100.00;101885.28;5004986;28;20034;-79
2022/10/29 00:08:52;;;;;;;15.38;5.68;;;;;;;14.95;100.00;101885.13;5007144;28;20038;-79
2022/10/29 00:11:20;;;;;;;16.17;6.18;;;;;;;14.94;100.00;101893.13;4981493;28;20041;-78
2022/10/29 00:13:47;;;;;;;15.18;5.88;;;;;;;14.94;100.00;101886.09;4997398;28;20034;-78
2022/10/29 00:16:18;;;;;;;12.32;6.03;;;;;;;14.94;100.00;101893.13;4966737;28;20042;-78
2022/10/29 00:18:44;;;;;;;16.02;6.00;;;;;;;14.94;100.00;101880.06;5005168;28;20076;-79
2022/10/29 00:21:13;;;;;;;17.00;6.28;;;;;;;14.93;100.00;101871.41;4985091;28;20042;-79
2022/10/29 00:23:39;;;;;;;23.13;7.03;;;;;;;14.94;100.00;101874.84;4968522;28;20044;-78
2022/10/29 00:26:05;;;;;;;14.88;6.25;;;;;;;14.93;100.00;101883.66;4982775;28;20029;-78
2022/10/29 00:28:31;;;;;;;15.57;6.47;;;;;;;14.94;100.00;101880.06;4989252;28;20107;-78
2022/10/29 00:30:56;;;;;;;14.68;5.90;;;;;;;14.94;100.00;101877.47;4999088;28;20124;-78
2022/10/29 00:33:22;;;;;;;21.42;6.47;;;;;;;14.93;100.00;101881.84;5002438;28;20034;-79
2022/10/29 00:35:55;;;;;;;15.82;6.25;;;;;;;14.93;100.00;101883.66;5001121;28;20092;-79
2022/10/29 00:38:21;;;;;;;19.58;6.25;;;;;;;14.93;100.00;101879.22;4986765;28;20034;-79
2022/10/29 00:40:46;;;;;;;14.02;6.25;;;;;;;14.89;100.00;101872.69;4987350;28;20040;-79
2022/10/29 00:43:13;;;;;;;20.73;6.80;;;;;;;14.88;100.00;101870.25;4999706;28;20073;-78
2022/10/29 00:45:53;;;;;;;23.23;7.57;;;;;;;14.82;100.00;101866.47;4971113;28;20057;-78
2022/10/29 00:48:20;;;;;;;13.43;5.72;;;;;;;14.78;100.00;101871.19;5002296;28;20042;-78
2022/10/29 00:50:47;;;;;;;20.02;6.07;;;;;;;14.76;100.00;101870.53;4983991;28;20129;-79
2022/10/29 00:53:15;;;;;;;17.95;6.78;;;;;;;14.76;100.00;101869.72;4991910;28;20038;-78
2022/10/29 00:55:41;;;;;;;22.13;7.13;;;;;;;14.74;100.00;101866.44;4992201;28;20502;-78
2022/10/29 00:58:09;;;;;;;19.30;7.32;;;;;;;14.74;100.00;101867.25;4991216;28;20038;-79
2022/10/29 01:00:34;;;;;;;23.25;8.18;;;;;;;14.74;100.00;101880.31;4992419;28;20510;-79
2022/10/29 01:03:00;;;;;;;26.38;7.22;;;;;;;14.74;100.00;101866.44;4992443;28;20029;-78
2022/10/29 01:05:27;;;;;;;17.92;6.93;;;;;;;14.71;100.00;101869.38;4985545;28;20046;-79
2022/10/29 01:07:52;;;;;;;14.50;6.53;;;;;;;14.67;100.00;101861.03;5006715;28;20034;-78
2022/10/29 01:10:27;;;;;;;17.77;6.38;;;;;;;14.64;100.00;101858.75;5005138;28;20033;-79
2022/10/29 01:13:05;;;;;;;11.85;6.10;;;;;;;14.60;100.00;101852.22;4971411;28;20031;-78
2022/10/29 01:15:54;;;;;;;17.65;5.90;;;;;;;14.54;100.00;101853.63;4981372;28;20038;-78
2022/10/29 01:18:29;;;;;;;15.20;5.43;;;;;;;14.49;100.00;101858.50;4988615;28;20053;-78
2022/10/29 01:21:31;;;;;;;21.75;6.63;;;;;;;14.47;100.00;101865.66;4989119;28;20038;-78
2022/10/29 01:24:02;;;;;;;14.43;6.57;;;;;;;14.45;100.00;101862.38;4992094;28;20041;-79
2022/10/29 01:27:09;;;;;;;24.10;6.18;;;;;;;14.44;100.00;101852.09;5005886;28;20117;-78
2022/10/29 01:29:54;;;;;;;20.77;5.68;;;;;;;14.39;100.00;101848.16;4984127;28;20034;-78
2022/10/29 01:32:33;;;;;;;20.92;6.43;;;;;;;14.38;100.00;101848.31;5002581;28;20118;-78
2022/10/29 01:35:01;;;;;;;16.08;5.93;;;;;;;14.37;100.00;101857.94;5001751;28;20109;-79
2022/10/29 01:37:57;;;;;;;11.38;5.95;;;;;;;14.39;100.00;101873.41;5005051;28;20037;-79
2022/10/29 01:40:30;;;;;;;15.10;6.05;;;;;;;14.38;100.00;101877.84;4980175;28;20049;-78
2022/10/29 01:43:30;;;;;;;17.48;5.75;;;;;;;14.38;100.00;101864.78;4983124;28;20049;-78
2022/10/29 01:46:18;;;;;;;18.83;7.85;;;;;;;14.37;100.00;101857.09;5005704;28;20042;-78
2022/10/29 01:48:48;;;;;;;12.07;5.93;;;;;;;14.36;100.00;101863.31;4987736;28;20141;-78
2022/10/29 01:51:20;;;;;;;21.27;7.72;;;;;;;14.35;100.00;101854.69;4985933;28;20038;-79
2022/10/29 01:53:46;;;;;;;17.83;6.80;;;;;;;14.33;100.00;101845.34;4998072;28;20042;-78
2022/10/29 01:56:12;;;;;;;20.38;6.80;;;;;;;14.30;100.00;101846.50;4986705;28;20049;-78
2022/10/29 01:58:42;;;;;;;14.40;6.60;;;;;;;14.30;100.00;101841.28;4973538;28;20049;-78
2022/10/29 02:01:30;;;;;;;16.02;6.60;;;;;;;14.30;100.00;101833.44;4984559;28;20040;-78
2022/10/29 02:04:20;;;;;;;18.30;6.95;;;;;;;14.27;100.00;101825.09;4997969;28;20045;-79
2022/10/29 02:07:08;;;;;;;14.40;6.20;;;;;;;14.23;100.00;101827.22;4969756;28;20096;-78
2022/10/29 02:09:51;;;;;;;21.80;6.47;;;;;;;14.19;100.00;101829.31;4979173;28;20628;-78
2022/10/29 02:12:30;;;;;;;14.70;5.78;;;;;;;14.17;100.00;101830.44;4991141;28;20045;-78
2022/10/29 02:15:34;;;;;;;15.40;5.78;;;;;;;14.17;100.00;101820.00;4975354;28;20034;-78
2022/10/29 02:18:01;;;;;;;14.18;6.47;;;;;;;14.14;100.00;101818.50;4969821;28;20065;-78
2022/10/29 02:20:27;;;;;;;14.27;5.88;;;;;;;14.12;100.00;101817.84;4985036;28;20049;-78
2022/10/29 02:22:52;;;;;;;14.90;5.53;;;;;;;14.10;100.00;101813.78;4966339;28;20443;-78
2022/10/29 02:25:18;;;;;;;17.00;5.97;;;;;;;14.09;100.00;101814.72;4986626;28;20034;-79
2022/10/29 02:27:43;;;;;;;15.32;6.75;;;;;;;14.07;100.00;101812.28;4983017;28;20034;-78
2022/10/29 02:30:09;;;;;;;14.95;5.97;;;;;;;14.03;100.00;101810.94;4985683;28;20035;-78
2022/10/29 02:32:34;;;;;;;15.93;6.18;;;;;;;14.00;100.00;101808.66;5005375;28;20092;-78
2022/10/29 02:35:00;;;;;;;12.48;5.25;;;;;;;13.97;100.00;101803.75;4967392;28;20497;-78
2022/10/29 02:37:26;;;;;;;14.27;5.70;;;;;;;13.93;100.00;101805.03;4988120;28;20041;-78
2022/10/29 02:39:52;;;;;;;23.58;6.43;;;;;;;13.89;100.00;101801.09;4986873;28;21748;-78
2022/10/29 02:42:17;;;;;;;14.38;6.78;;;;;;;13.88;100.00;101802.91;5001113;28;20027;-79
2022/10/29 02:44:42;;;;;;;13.13;7.57;;;;;;;13.88;100.00;101805.50;5002688;28;20038;-77
2022/10/29 02:47:08;;;;;;;17.48;6.68;;;;;;;13.88;100.00;101800.28;5002417;28;20698;-78
2022/10/29 02:49:33;;;;;;;18.20;5.90;;;;;;;13.86;100.00;101802.19;5002785;28;20037;-78
2022/10/29 02:51:59;;;;;;;17.77;6.28;;;;;;;13.82;100.00;101800.88;4991540;28;20415;-78
2022/10/29 02:54:24;;;;;;;11.93;5.70;;;;;;;13.76;100.00;101804.91;4975341;28;20038;-79
2022/10/29 02:56:50;;;;;;;17.45;5.93;;;;;;;13.71;100.00;101793.31;4979662;28;20045;-78
2022/10/29 02:59:15;;;;;;;18.33;7.00;;;;;;;13.71;100.00;101796.75;4975042;28;20467;-78
2022/10/29 03:01:40;;;;;;;18.83;7.00;;;;;;;13.68;100.00;101801.44;4975067;28;20038;-78
2022/10/29 03:04:06;;;;;;;18.60;6.50;;;;;;;13.67;100.00;101799.81;4991966;28;20033;-78
2022/10/29 03:06:31;;;;;;;21.13;6.57;;;;;;;13.67;100.00;101800.59;5001283;28;20054;-78
2022/10/29 03:08:57;;;;;;;13.20;6.60;;;;;;;13.66;100.00;101790.38;4991798;28;20061;-78
2022/10/29 03:11:22;;;;;;;15.07;6.88;;;;;;;13.67;100.00;101789.38;4976642;28;20591;-78
2022/10/29 03:13:48;;;;;;;20.13;6.53;;;;;;;13.66;100.00;101783.34;5005924;28;20029;-78
2022/10/29 03:16:13;;;;;;;12.25;5.63;;;;;;;13.65;100.00;101780.91;4987829;28;20067;-78
2022/10/29 03:18:39;;;;;;;17.92;6.75;;;;;;;13.60;100.00;101769.16;5008142;28;20040;-78
2022/10/29 03:21:04;;;;;;;13.55;5.72;;;;;;;13.56;100.00;101780.00;4992326;28;20120;-78
2022/10/29 03:23:29;;;;;;;16.83;6.10;;;;;;;13.53;100.00;101778.53;4994555;28;20041;-78
2022/10/29 03:25:55;;;;;;;14.63;6.28;;;;;;;13.54;100.00;101784.56;4972722;28;20049;-78
2022/10/29 03:28:21;;;;;;;19.75;7.15;;;;;;;13.55;100.00;101776.59;4988414;28;20106;-78
2022/10/29 03:30:47;;;;;;;15.48;6.82;;;;;;;13.56;100.00;101772.19;4975234;28;20053;-78
2022/10/29 03:33:12;;;;;;;15.50;6.60;;;;;;;13.55;100.00;101768.78;4987375;28;20030;-78
2022/10/29 03:35:38;;;;;;;14.65;6.47;;;;;;;13.55;100.00;101768.78;4993952;28;20518;-78
2022/10/29 03:38:03;;;;;;;15.52;7.05;;;;;;;13.54;100.00;101763.72;5006606;28;20609;-78
2022/10/29 03:40:29;;;;;;;15.13;6.30;;;;;;;13.51;100.00;101759.63;5006660;28;20407;-78
2022/10/29 03:42:54;;;;;;;19.15;7.10;;;;;;;13.49;100.00;101743.34;5009264;28;20037;-78
2022/10/29 03:45:19;;;;;;;18.02;7.50;;;;;;;13.47;100.00;101749.66;4993067;28;20042;-78
2022/10/29 03:47:45;;;;;;;19.75;7.05;;;;;;;13.45;100.00;101752.44;5000096;28;20053;-78
2022/10/29 03:50:10;;;;;;;17.02;7.45;;;;;;;13.44;100.00;101754.19;5005915;28;20478;-78
2022/10/29 03:52:36;;;;;;;19.17;7.22;;;;;;;13.46;100.00;101761.06;4989408;28;20038;-78
2022/10/29 03:55:02;;;;;;;19.00;7.63;;;;;;;13.47;100.00;101754.84;4987592;28;20025;-78
2022/10/29 03:57:28;;;;;;;20.23;7.32;;;;;;;13.44;100.00;101746.38;5005779;28;20034;-78
2022/10/29 03:59:53;;;;;;;15.30;7.20;;;;;;;13.40;100.00;101746.84;4974263;28;20036;-78
2022/10/29 04:02:19;;;;;;;20.33;6.70;;;;;;;13.36;100.00;101756.75;4989047;28;20039;-77
2022/10/29 04:04:45;;;;;;;25.77;7.05;;;;;;;13.39;100.00;101771.25;5001207;28;20727;-78
2022/10/29 04:07:10;;;;;;;19.63;7.65;;;;;;;13.40;100.00;101771.09;4968511;28;20046;-80
2022/10/29 04:09:36;;;;;;;18.40;6.93;;;;;;;13.42;100.00;101768.34;4987285;28;20462;-78
2022/10/29 04:12:02;;;;;;;16.35;7.78;;;;;;;13.43;100.00;101762.19;4993618;28;20088;-78
2022/10/29 04:14:27;;;;;;;22.77;7.47;;;;;;;13.43;100.00;101760.41;5008385;28;20033;-77
2022/10/29 04:16:53;;;;;;;15.73;6.72;;;;;;;13.46;100.00;101753.25;4988976;28;20096;-77
2022/10/29 04:19:18;;;;;;;24.20;8.00;;;;;;;13.38;100.00;101739.19;5006519;28;20471;-78
2022/10/29 04:21:43;;;;;;;14.23;8.43;;;;;;;13.34;100.00;101740.47;5001008;28;20065;-77
2022/10/29 04:24:09;;;;;;;17.40;6.45;;;;;;;13.34;100.00;101732.66;4980881;28;20081;-78
2022/10/29 04:26:34;;;;;;;15.82;6.75;;;;;;;13.31;100.00;101730.31;5001764;28;20041;-78
2022/10/29 04:29:00;;;;;;;19.83;7.65;;;;;;;13.29;100.00;101729.63;5008204;28;20033;-78
2022/10/29 04:31:25;;;;;;;19.92;7.13;;;;;;;13.28;100.00;101727.16;4989494;28;20042;-77
2022/10/29 04:33:54;;;;;;;15.23;6.80;;;;;;;13.27;100.00;101728.97;4990139;28;20053;-78
2022/10/29 04:36:19;;;;;;;18.23;7.93;;;;;;;13.30;100.00;101733.03;4976811;28;20030;-78
2022/10/29 04:38:45;;;;;;;25.67;7.75;;;;;;;13.29;100.00;101728.81;4979930;28;20041;-78
2022/10/29 04:41:10;;;;;;;21.38;7.97;;;;;;;13.26;100.00;101714.31;4998336;28;20387;-78
2022/10/29 04:43:36;;;;;;;17.52;6.57;;;;;;;13.25;100.00;101699.66;4988029;28;20040;-77
2022/10/29 04:46:01;;;;;;;18.75;6.65;;;;;;;13.24;100.00;101692.78;5008324;28;20042;-78
2022/10/29 04:48:28;;;;;;;13.43;7.13;;;;;;;13.24;100.00;101698.84;5007843;28;20466;-78
2022/10/29 04:50:53;;;;;;;23.92;7.70;;;;;;;13.26;100.00;101690.88;4980526;28;20038;-78
2022/10/29 04:53:19;;;;;;;22.42;9.43;;;;;;;13.34;100.00;101693.56;4992214;28;20545;-78
2022/10/29 04:55:45;;;;;;;20.48;7.60;;;;;;;13.35;100.00;101718.63;4989734;28;20057;-78
2022/10/29 04:58:13;;;;;;;19.55;7.82;;;;;;;13.32;100.00;101716.34;5004675;28;20157;-78
2022/10/29 05:00:39;;;;;;;22.55;8.40;;;;;;;13.32;100.00;101721.56;4992768;28;20042;-79
2022/10/29 05:03:05;;;;;;;20.13;8.52;;;;;;;13.31;100.00;101724.31;5000740;28;20153;-78
2022/10/29 05:05:30;;;;;;;24.98;7.72;;;;;;;13.31;100.00;101709.50;5005441;28;20132;-78
2022/10/29 05:08:01;;;;;;;29.08;8.27;;;;;;;13.28;100.00;101703.72;5006186;28;20044;-78
2022/10/29 05:10:28;;;;;;;19.55;8.60;;;;;;;13.28;100.00;101707.19;5004080;28;20092;-78
2022/10/29 05:12:58;;;;;;;27.17;9.05;;;;;;;13.35;100.00;101708.22;5006153;28;20034;-78
2022/10/29 05:15:24;;;;;;;26.63;9.45;;;;;;;13.47;100.00;101710.56;4986902;28;20038;-78
2022/10/29 05:17:50;;;;;;;24.65;9.68;;;;;;;13.37;100.00;101708.06;4971705;28;20470;-78
2022/10/29 05:20:16;;;;;;;35.20;10.10;;;;;;;13.35;100.00;101700.41;4984843;28;20042;-79
2022/10/29 05:22:41;;;;;;;29.73;9.30;;;;;;;13.32;100.00;101702.50;4968377;28;20035;-79
2022/10/29 05:25:07;;;;;;;34.08;13.75;;;;;;;13.41;100.00;101698.97;4980599;28;20034;-82
2022/10/29 05:27:32;;;;;;;39.67;13.18;;;;;;;13.50;100.00;101697.25;4984484;28;20054;-79
2022/10/29 05:29:57;;;;;;;34.53;12.40;;;;;;;13.51;100.00;101701.50;4971100;28;20060;-79
2022/10/29 05:32:23;;;;;;;27.63;13.65;;;;;;;13.54;100.00;101706.38;5007521;28;20048;-80
2022/10/29 05:34:48;;;;;;;35.58;14.13;;;;;;;13.54;100.00;101709.00;4989845;28;20475;-79
2022/10/29 05:37:14;;;;;;;32.75;12.27;;;;;;;13.55;100.00;101702.81;5003451;28;20121;-79
2022/10/29 05:39:39;;;;;;;34.13;14.20;;;;;;;13.73;100.00;101697.53;5005490;28;20037;-80
2022/10/29 05:42:05;;;;;;;36.95;13.48;;;;;;;13.75;100.00;101691.22;4986509;28;20065;-79
2022/10/29 05:44:30;;;;;;;34.80;13.45;;;;;;;13.82;100.00;101694.00;4990763;28;20118;-79
2022/10/29 05:46:56;;;;;;;30.63;12.65;;;;;;;13.72;100.00;101686.31;4986237;28;20042;-80
2022/10/29 05:49:21;;;;;;;31.90;12.68;;;;;;;13.74;100.00;101686.16;4990982;28;20025;-80
2022/10/29 05:51:46;;;;;;;32.70;12.68;;;;;;;13.69;100.00;101697.03;4986725;28;20038;-79
2022/10/29 05:54:12;;;;;;;27.67;11.90;;;;;;;13.70;100.00;101682.22;4998694;28;20033;-78
2022/10/29 05:56:37;;;;;;;29.00;11.35;;;;;;;13.70;100.00;101674.41;4971516;28;20383;-79
2022/10/29 05:59:03;;;;;;;34.63;10.70;;;;;;;13.58;100.00;101676.44;4987865;28;20040;-78
2022/10/29 06:01:28;;;;;;;28.98;10.30;;;;;;;13.79;100.00;101671.69;4982655;28;20038;-78
2022/10/29 06:03:54;;;;;;;31.20;9.35;;;;;;;13.82;100.00;101678.38;5006526;28;20037;-84
2022/10/29 06:06:19;;;;;;;29.52;10.30;;;;;;;13.74;100.00;101681.75;5001481;28;20038;-80
2022/10/29 06:08:44;;;;;;;31.73;9.80;;;;;;;13.76;100.00;101679.00;4981419;28;20025;-79
2022/10/29 06:11:10;;;;;;;28.30;9.85;;;;;;;13.75;100.00;101674.75;5002632;28;20046;-80
2022/10/29 06:13:35;;;;;;;29.40;9.48;;;;;;;13.73;100.00;101674.06;4990714;28;20038;-79
2022/10/29 06:16:01;;;;;;;32.00;9.95;;;;;;;13.73;100.00;101676.69;4976381;28;20050;-80
2022/10/29 06:18:27;;;;;;;28.25;9.32;;;;;;;13.73;100.00;101671.47;4968562;28;20060;-81
2022/10/29 06:20:55;;;;;;;32.13;9.55;;;;;;;13.84;100.00;101663.38;5001676;28;20034;-83
2022/10/29 06:23:21;;;;;;;29.60;8.90;;;;;;;13.86;100.00;101663.22;4972662;28;20042;-83
2022/10/29 06:25:46;;;;;;;23.70;9.45;;;;;;;13.89;100.00;101668.16;4985054;28;20050;-80
2022/10/29 06:28:14;;;;;;;41.05;9.88;;;;;;;13.91;100.00;101669.59;4971638;28;20034;-82
2022/10/29 06:30:44;;;;;;;31.42;8.65;;;;;;;14.02;100.00;101658.09;4995177;28;20070;-83
2022/10/29 06:33:09;;;;;;;21.67;7.78;;;;;;;13.87;100.00;101672.69;4994052;28;20058;-80
2022/10/29 06:35:35;;;;;;;24.15;8.50;;;;;;;13.93;100.00;101683.31;5009770;28;20053;-80
2022/10/29 06:38:02;;;;;;;34.63;10.20;;;;;;;13.86;100.00;101674.47;4990395;28;20385;-82
2022/10/29 06:40:27;;;;;;;20.63;8.13;;;;;;;13.81;100.00;101682.75;4996053;28;20083;-82
2022/10/29 06:43:01;;;;;;;22.23;8.25;;;;;;;13.82;100.00;101681.81;4971616;28;20034;-79
2022/10/29 06:45:27;;;;;;;28.73;9.25;;;;;;;13.88;100.00;101677.75;4977982;28;20045;-81
2022/10/29 06:47:52;;;;;;;40.15;13.35;;;;;;;13.82;100.00;101675.75;5008571;28;20042;-82
2022/10/29 06:50:18;;;;;;;19.65;8.82;;;;;;;13.94;100.00;101679.72;4994464;28;20046;-81
2022/10/29 06:52:53;;;;;;;24.83;8.68;;;;;;;13.96;100.00;101679.59;4994245;28;20049;-79
2022/10/29 06:55:29;;;;;;;24.55;8.30;;;;;;;14.09;100.00;101677.34;4956770;28;20514;-81
2022/10/29 06:58:16;;;;;;;22.10;8.02;;;;;;;14.10;100.00;101681.56;4995122;28;20049;-82
2022/10/29 07:00:43;;;;;;;25.77;8.30;;;;;;;14.13;100.00;101678.66;4980349;28;20037;-82
2022/10/29 07:03:16;;;;;;;25.00;8.32;;;;;;;14.11;100.00;101683.22;4973977;28;20049;-80
2022/10/29 07:05:42;;;;;;;;;;;;;;;14.24;100.00;101679.34;4992834;28;20037;-83
2022/10/29 07:08:08;;;;;;;26.33;8.18;;;;;;;14.37;100.00;101677.09;4994612;28;19928;-80
2022/10/29 07:10:33;;;;;;;31.25;8.63;;;;;;;14.26;100.00;101675.59;4996508;28;20126;-83
2022/10/29 07:12:59;;;;;;;26.65;8.50;;;;;;;14.32;100.00;101674.97;5005700;28;20070;-80
2022/10/29 07:15:26;;;;;;;34.53;9.40;;;;;;;14.29;100.00;101677.88;5004505;28;20073;-80
2022/10/29 07:18:03;;;;;;;31.20;10.60;;;;;;;14.29;100.00;101684.91;4995175;28;20069;-80
2022/10/29 07:20:31;;;;;;;26.65;9.43;;;;;;;14.27;100.00;101687.66;5005104;28;20529;-82
2022/10/29 07:22:56;;;;;;;26.77;8.77;;;;;;;14.38;100.00;101691.78;4989809;28;20030;-82
2022/10/29 07:25:22;;;;;;;20.92;7.65;;;;;;;14.48;100.00;101696.84;4985289;28;20388;-82
2022/10/29 07:27:48;;;;;;;28.25;8.27;;;;;;;14.57;100.00;101694.13;4994596;28;20038;-81
2022/10/29 07:30:15;;;;;;;23.27;7.53;;;;;;;14.59;100.00;101684.34;4993881;28;20030;-81
2022/10/29 07:32:40;;;;;;;24.60;7.47;;;;;;;14.68;100.00;101689.59;4989447;28;20047;-85
2022/10/29 07:35:06;;;;;;;25.77;7.68;;;;;;;14.81;100.00;101684.69;4992796;28;20042;-80
2022/10/29 07:37:31;;;;;;;22.67;7.82;;;;;;;14.73;100.00;101679.44;4987499;28;20044;-84
2022/10/29 07:39:57;;;;;;;26.23;7.32;;;;;;;14.85;100.00;101682.59;4975753;28;20112;-81
2022/10/29 07:42:23;;;;;;;23.02;6.85;;;;;;;14.91;100.00;101677.50;4988630;28;20064;-81
2022/10/29 07:44:48;;;;;;;20.25;6.90;;;;;;;14.92;100.00;101673.13;4988411;28;20061;-84
2022/10/29 07:47:17;;;;;;;26.75;7.15;;;;;;;14.96;100.00;101670.00;4995049;28;20065;-84
2022/10/29 07:49:42;;;;;;;16.20;6.22;;;;;;;15.01;100.00;101679.94;5012510;28;20057;-82
2022/10/29 07:52:09;;;;;;;21.25;6.75;;;;;;;15.03;100.00;101674.56;4985681;28;20503;-81
2022/10/29 07:54:34;;;;;;;21.48;7.47;;;;;;;15.08;100.00;101672.28;4991103;28;20034;-81
2022/10/29 07:57:00;;;;;;;15.77;6.55;;;;;;;15.02;100.00;101678.19;5000768;28;20411;-82
2022/10/29 07:59:25;;;;;;;26.45;7.53;;;;;;;14.96;100.00;101664.78;4994842;28;20088;-86
2022/10/29 08:01:51;;;;;;;34.38;9.70;;;;;;;14.93;100.00;101670.31;4973874;28;20042;-82
2022/10/29 08:04:17;;;;;;;28.98;8.18;;;;;;;14.95;100.00;101675.41;4970584;28;20034;-81
2022/10/29 08:06:43;;;;;;;29.20;7.97;;;;;;;14.91;100.00;101677.50;4997470;28;20143;-79
2022/10/29 08:09:10;;;;;;;39.50;9.55;;;;;;;14.91;100.00;101680.13;4989414;28;20042;-83
2022/10/29 08:11:36;;;;;;;36.45;7.75;;;;;;;15.01;100.00;101679.16;5002785;28;20048;-81
2022/10/29 08:14:02;;;;;;;28.02;7.70;;;;;;;15.10;100.00;101678.16;4992056;28;20034;-84
2022/10/29 08:16:27;;;;;;;24.10;6.82;;;;;;;15.11;100.00;101679.81;5012251;28;20132;-81
2022/10/29 08:18:52;;;;;;;30.02;8.50;;;;;;;15.18;100.00;101665.91;4987498;28;20060;-84
2022/10/29 08:21:18;;;;;;;20.23;6.97;;;;;;;15.22;100.00;101663.81;4993163;28;20038;-82
2022/10/29 08:23:44;;;;;;;21.95;6.97;;;;;;;15.37;100.00;101664.75;5000567;28;20034;-85
2022/10/29 08:26:09;;;;;;;29.88;7.90;;;;;;;15.49;99.97;101665.19;4996951;28;20033;-81
2022/10/29 08:28:35;;;;;;;23.52;8.30;;;;;;;15.67;99.34;101651.94;5010922;28;20474;-81
2022/10/29 08:31:00;;;;;;;32.40;7.22;;;;;;;15.72;97.94;101654.03;4985431;28;20111;-84
2022/10/29 08:33:26;;;;;;;26.25;6.88;;;;;;;15.82;97.49;101653.84;4985487;28;20035;-84
2022/10/29 08:35:53;;;;;;;25.63;7.95;;;;;;;15.89;97.00;101652.19;4977952;28;20038;-85
2022/10/29 08:38:22;;;;;;;20.45;6.45;;;;;;;15.75;97.08;101651.91;4969204;28;20097;-85
2022/10/29 08:40:47;;;;;;;24.05;7.25;;;;;;;15.71;97.79;101653.22;4971390;28;20046;-81
2022/10/29 08:43:22;;;;;;;32.30;7.50;;;;;;;15.71;97.72;101657.63;5005490;28;20030;-84
2022/10/29 08:45:51;;;;;;;19.67;6.68;;;;;;;15.76;97.44;101655.34;4976922;28;20183;-85
2022/10/29 08:48:35;;;;;;;34.05;7.97;;;;;;;15.70;98.23;101656.81;5011301;28;20076;-82
2022/10/29 08:51:19;;;;;;;26.92;7.35;;;;;;;15.70;98.68;101656.81;4996837;28;20035;-84
2022/10/29 08:53:49;;;;;;;30.50;7.38;;;;;;;15.84;97.92;101659.72;4987168;28;20499;-83
2022/10/29 08:56:24;;;;;;;24.67;7.05;;;;;;;15.76;98.46;101657.97;4972556;28;20053;-82
2022/10/29 08:59:09;;;;;;;16.35;6.72;;;;;;;15.87;97.97;101656.78;4994173;28;20105;-85
2022/10/29 09:01:35;;;;;;;18.58;6.65;;;;;;;15.87;97.96;101656.78;5005095;28;20062;-84
2022/10/29 09:04:02;;;;;;;16.38;6.93;;;;;;;15.93;97.32;101656.09;4995119;28;20032;-83
2022/10/29 09:06:43;;;;;;;19.98;6.85;;;;;;;16.08;97.12;101649.16;4992746;28;20065;-84
2022/10/29 09:09:27;;;;;;;21.00;7.22;;;;;;;16.07;97.08;101658.00;4976947;28;20532;-83
2022/10/29 09:12:11;;;;;;;19.23;6.88;;;;;;;16.24;96.75;101652.69;4991919;28;20049;-81
2022/10/29 09:15:00;;;;;;;24.83;8.38;;;;;;;16.36;96.53;101659.13;5009590;28;20065;-82
2022/10/29 09:17:54;;;;;;;31.65;7.20;;;;;;;16.60;94.14;101654.72;4982287;28;20038;-83
2022/10/29 09:20:23;;;;;;;;;;;;;;;16.65;93.99;101657.63;4996900;28;20038;-83
2022/10/29 09:22:54;;;;;;;15.95;6.20;;;;;;;16.84;93.22;101643.25;4983251;28;19918;-80
2022/10/29 09:25:28;;;;;;;23.05;6.47;;;;;;;16.85;93.37;101637.84;4987298;28;20494;-82
2022/10/29 09:28:05;;;;;;;23.55;6.78;;;;;;;16.99;93.79;101633.66;4989737;28;20109;-81
2022/10/29 09:30:39;;;;;;;24.58;6.57;;;;;;;17.07;93.18;101638.00;4992145;28;20430;-79
2022/10/29 09:33:13;;;;;;;25.20;6.47;;;;;;;17.10;92.92;101635.00;4991935;28;20042;-85
2022/10/29 09:35:44;;;;;;;27.65;5.82;;;;;;;17.16;92.27;101634.31;4989132;28;20046;-83
2022/10/29 09:38:19;;;;;;;29.95;6.65;;;;;;;17.34;92.04;101633.13;5003648;28;20068;-84
2022/10/29 09:40:45;;;;;;;19.40;5.78;;;;;;;17.42;91.48;101631.25;4999053;28;20096;-81
2022/10/29 09:43:32;;;;;;;26.92;6.68;;;;;;;17.33;92.16;101629.72;4975040;28;20038;-84
2022/10/29 09:46:16;;;;;;;16.40;5.93;;;;;;;17.38;91.98;101624.72;5004136;28;20564;-85
2022/10/29 09:48:51;;;;;;;17.08;5.57;;;;;;;17.39;91.97;101631.59;4994502;28;20427;-82
2022/10/29 09:51:56;;;;;;;18.05;6.68;;;;;;;17.43;91.45;101640.72;4975360;28;20129;-83
2022/10/29 09:54:28;;;;;;;21.50;6.05;;;;;;;17.44;90.93;101636.28;4975016;28;20038;-82
2022/10/29 09:56:54;;;;;;;32.42;7.45;;;;;;;17.36;91.69;101637.19;4992783;28;20052;-84
2022/10/29 09:59:45;;;;;;;15.35;5.82;;;;;;;17.57;90.53;101631.22;4979144;28;20068;-83
2022/10/29 10:02:34;;;;;;;22.55;7.55;;;;;;;17.61;90.19;101623.81;5013401;28;20048;-84
2022/10/29 10:05:12;;;;;;;20.23;5.28;;;;;;;17.68;90.97;101624.72;5016130;28;20030;-82
2022/10/29 10:07:38;;;;;;;22.05;5.63;;;;;;;17.82;90.04;101618.63;4995362;28;20054;-80
2022/10/29 10:10:06;;;;;;;26.60;5.85;;;;;;;17.88;89.96;101619.75;4993686;28;20033;-82
2022/10/29 10:12:37;;;;;;;23.52;5.70;;;;;;;17.88;89.54;101627.63;4980317;28;20049;-83
2022/10/29 10:15:08;;;;;;;20.55;6.22;;;;;;;17.86;90.05;101616.50;4999165;28;20038;-80
2022/10/29 10:17:57;;;;;;;21.55;5.57;;;;;;;17.87;90.25;101626.78;5008506;28;20042;-82
2022/10/29 10:20:33;;;;;;;18.88;5.72;;;;;;;18.02;88.38;101624.13;4981028;28;20038;-82
2022/10/29 10:22:59;;;;;;;26.13;5.53;;;;;;;18.05;88.00;101617.72;5012505;28;20402;-84
2022/10/29 10:25:40;;;;;;;20.13;5.82;;;;;;;18.08;88.67;101604.19;4981949;28;20053;-85
2022/10/29 10:28:29;;;;;;;22.33;7.35;;;;;;;18.13;88.28;101603.66;4974269;28;20041;-85
2022/10/29 10:31:05;;;;;;;23.55;6.22;;;;;;;18.31;88.39;101600.59;4991518;28;20070;-84
2022/10/29 10:33:33;;;;;;;15.52;5.00;;;;;;;18.33;88.76;101604.66;4998339;28;20057;-83
2022/10/29 10:36:08;;;;;;;20.98;5.35;;;;;;;18.35;87.41;101609.72;4991392;28;20502;-83
2022/10/29 10:38:43;;;;;;;19.80;5.68;;;;;;;18.57;87.19;101610.50;4973475;28;20033;-86
2022/10/29 10:41:11;;;;;;;21.95;6.85;;;;;;;18.67;85.32;101609.19;4984858;28;20037;-83
2022/10/29 10:43:40;;;;;;;29.38;6.38;;;;;;;18.77;84.54;101611.50;4994331;28;20022;-86
2022/10/29 10:46:20;;;;;;;23.60;5.45;;;;;;;18.77;84.54;101605.44;4991149;28;20095;-83
2022/10/29 10:49:00;;;;;;;19.92;6.65;;;;;;;18.81;83.23;101607.50;4977668;28;20726;-86
2022/10/29 10:51:35;;;;;;;27.80;6.32;;;;;;;18.72;84.11;101599.94;4991893;28;20513;-82
2022/10/29 10:54:19;;;;;;;33.88;6.28;;;;;;;18.65;84.77;101599.91;5012183;28;20041;-83
2022/10/29 10:57:10;;;;;;;21.38;5.97;;;;;;;18.90;83.53;101586.34;4993544;28;20503;-80
2022/10/29 10:59:58;;;;;;;22.80;4.72;;;;;;;18.83;84.82;101589.72;4973525;28;20038;-83
2022/10/29 11:02:33;;;;;;;18.48;5.55;;;;;;;18.84;84.46;101582.69;4990249;28;20510;-83
2022/10/29 11:05:08;;;;;;;25.85;6.25;;;;;;;18.91;84.17;101585.34;4989627;28;20080;-86
2022/10/29 11:07:40;;;;;;;20.88;5.88;;;;;;;19.01;83.54;101591.09;5007382;28;20095;-83
2022/10/29 11:10:10;;;;;;;20.88;5.05;;;;;;;19.02;83.86;101595.31;4991475;28;20068;-82
2022/10/29 11:12:44;;;;;;;21.92;5.57;;;;;;;19.04;83.33;101585.41;4995336;28;20050;-82
2022/10/29 11:15:35;;;;;;;22.30;5.43;;;;;;;19.03;83.64;101582.00;4991616;28;20037;-83
2022/10/29 11:18:17;;;;;;;23.50;4.80;;;;;;;19.06;82.75;101581.63;4983931;28;20526;-83
2022/10/29 11:20:54;;;;;;;23.38;5.70;;;;;;;19.12;82.37;101568.69;4994471;28;20054;-85
2022/10/29 11:23:34;;;;;;;17.40;6.60;;;;;;;18.99;83.45;101580.75;4975756;28;20028;-80
2022/10/29 11:26:07;;;;;;;22.08;5.43;;;;;;;19.15;81.88;101584.88;4977755;28;20717;-87